sensor_id;sensor_type;location;lat;lon;timestamp;P1;durP1;ratioP1;P2;durP2;ratioP2
16308;SDS011;8263;48.880;9.276;2023-05-31T00:02:19;115.47;;;107.85;;
16308;SDS011;8263;48.880;9.276;2023-05-31T00:04:46;115.57;;;107.97;;
16308;SDS011;8263;48.880;9.276;2023-05-31T00:07:12;117.35;;;109.55;;
16308;SDS011;8263;48.880;9.276;2023-05-31T00:09:39;116.03;;;108.38;;
16308;SDS011;8263;48.880;9.276;2023-05-31T00:12:08;116.05;;;108.35;;
16308;SDS011;8263;48.880;9.276;2023-05-31T00:14:35;115.05;;;107.45;;
16308;SDS011;8263;48.880;9.276;2023-05-31T00:17:01;115.55;;;107.90;;
16308;SDS011;8263;48.880;9.276;2023-05-31T00:19:28;115.75;;;108.13;;
16308;SDS011;8263;48.880;9.276;2023-05-31T00:21:55;116.32;;;108.63;;
16308;SDS011;8263;48.880;9.276;2023-05-31T00:24:21;115.78;;;108.07;;
16308;SDS011;8263;48.880;9.276;2023-05-31T00:26:48;114.47;;;106.88;;
16308;SDS011;8263;48.880;9.276;2023-05-31T00:29:16;116.45;;;108.72;;
16308;SDS011;8263;48.880;9.276;2023-05-31T00:31:43;117.20;;;109.40;;
16308;SDS011;8263;48.880;9.276;2023-05-31T00:34:09;117.88;;;110.05;;
16308;SDS011;8263;48.880;9.276;2023-05-31T00:36:37;117.82;;;109.95;;
16308;SDS011;8263;48.880;9.276;2023-05-31T00:39:03;116.97;;;109.22;;
16308;SDS011;8263;48.880;9.276;2023-05-31T00:41:30;119.30;;;111.05;;
16308;SDS011;8263;48.880;9.276;2023-05-31T00:43:57;116.70;;;108.90;;
16308;SDS011;8263;48.880;9.276;2023-05-31T00:46:27;115.50;;;107.80;;
16308;SDS011;8263;48.880;9.276;2023-05-31T00:48:54;116.72;;;109.03;;
16308;SDS011;8263;48.880;9.276;2023-05-31T00:51:22;119.20;;;111.30;;
16308;SDS011;8263;48.880;9.276;2023-05-31T00:53:50;116.90;;;109.10;;
16308;SDS011;8263;48.880;9.276;2023-05-31T00:56:17;118.93;;;110.90;;
16308;SDS011;8263;48.880;9.276;2023-05-31T00:58:44;118.20;;;110.20;;
16308;SDS011;8263;48.880;9.276;2023-05-31T01:01:12;118.65;;;110.68;;
16308;SDS011;8263;48.880;9.276;2023-05-31T01:03:40;119.65;;;111.65;;
16308;SDS011;8263;48.880;9.276;2023-05-31T01:06:07;118.75;;;110.85;;
16308;SDS011;8263;48.880;9.276;2023-05-31T01:08:34;117.15;;;109.35;;
16308;SDS011;8263;48.880;9.276;2023-05-31T01:11:02;118.50;;;110.60;;
16308;SDS011;8263;48.880;9.276;2023-05-31T01:13:32;117.05;;;109.25;;
16308;SDS011;8263;48.880;9.276;2023-05-31T01:16:01;119.28;;;111.05;;
16308;SDS011;8263;48.880;9.276;2023-05-31T01:18:31;119.20;;;111.28;;
16308;SDS011;8263;48.880;9.276;2023-05-31T01:21:02;120.20;;;112.05;;
16308;SDS011;8263;48.880;9.276;2023-05-31T01:23:34;118.63;;;110.72;;
16308;SDS011;8263;48.880;9.276;2023-05-31T01:26:28;120.72;;;112.57;;
16308;SDS011;8263;48.880;9.276;2023-05-31T01:28:57;120.60;;;112.55;;
16308;SDS011;8263;48.880;9.276;2023-05-31T01:31:24;119.72;;;111.72;;
16308;SDS011;8263;48.880;9.276;2023-05-31T01:33:52;119.30;;;111.32;;
16308;SDS011;8263;48.880;9.276;2023-05-31T01:36:19;120.47;;;112.45;;
16308;SDS011;8263;48.880;9.276;2023-05-31T01:38:46;120.55;;;112.45;;
16308;SDS011;8263;48.880;9.276;2023-05-31T01:41:12;118.35;;;110.45;;
16308;SDS011;8263;48.880;9.276;2023-05-31T01:43:44;120.03;;;112.03;;
16308;SDS011;8263;48.880;9.276;2023-05-31T01:46:12;119.43;;;111.43;;
16308;SDS011;8263;48.880;9.276;2023-05-31T01:48:40;121.22;;;113.13;;
16308;SDS011;8263;48.880;9.276;2023-05-31T01:51:08;118.97;;;111.07;;
16308;SDS011;8263;48.880;9.276;2023-05-31T01:53:34;120.05;;;112.05;;
16308;SDS011;8263;48.880;9.276;2023-05-31T01:56:01;120.45;;;112.28;;
16308;SDS011;8263;48.880;9.276;2023-05-31T01:58:29;120.18;;;112.03;;
16308;SDS011;8263;48.880;9.276;2023-05-31T02:00:58;120.22;;;112.22;;
16308;SDS011;8263;48.880;9.276;2023-05-31T02:03:24;120.53;;;112.45;;
16308;SDS011;8263;48.880;9.276;2023-05-31T02:05:54;121.68;;;113.47;;
16308;SDS011;8263;48.880;9.276;2023-05-31T02:08:22;121.10;;;113.00;;
16308;SDS011;8263;48.880;9.276;2023-05-31T02:10:48;120.38;;;112.20;;
16308;SDS011;8263;48.880;9.276;2023-05-31T02:13:15;120.35;;;112.32;;
16308;SDS011;8263;48.880;9.276;2023-05-31T02:15:41;119.05;;;111.05;;
16308;SDS011;8263;48.880;9.276;2023-05-31T02:18:09;119.35;;;111.38;;
16308;SDS011;8263;48.880;9.276;2023-05-31T02:20:37;121.60;;;113.43;;
16308;SDS011;8263;48.880;9.276;2023-05-31T02:23:04;123.35;;;114.95;;
16308;SDS011;8263;48.880;9.276;2023-05-31T02:25:30;122.53;;;114.32;;
16308;SDS011;8263;48.880;9.276;2023-05-31T02:27:58;120.97;;;112.88;;
16308;SDS011;8263;48.880;9.276;2023-05-31T02:30:25;121.68;;;113.53;;
16308;SDS011;8263;48.880;9.276;2023-05-31T02:32:52;121.28;;;113.18;;
16308;SDS011;8263;48.880;9.276;2023-05-31T02:35:20;122.50;;;114.30;;
16308;SDS011;8263;48.880;9.276;2023-05-31T02:37:47;121.95;;;113.75;;
16308;SDS011;8263;48.880;9.276;2023-05-31T02:40:14;121.57;;;113.38;;
16308;SDS011;8263;48.880;9.276;2023-05-31T02:42:41;122.13;;;113.93;;
16308;SDS011;8263;48.880;9.276;2023-05-31T02:45:08;123.65;;;115.32;;
16308;SDS011;8263;48.880;9.276;2023-05-31T02:47:35;122.97;;;114.68;;
16308;SDS011;8263;48.880;9.276;2023-05-31T02:50:02;121.75;;;113.55;;
16308;SDS011;8263;48.880;9.276;2023-05-31T02:52:30;123.38;;;114.88;;
16308;SDS011;8263;48.880;9.276;2023-05-31T02:54:56;123.32;;;115.03;;
16308;SDS011;8263;48.880;9.276;2023-05-31T02:57:23;122.75;;;114.13;;
16308;SDS011;8263;48.880;9.276;2023-05-31T02:59:53;122.95;;;114.65;;
16308;SDS011;8263;48.880;9.276;2023-05-31T03:02:20;121.97;;;113.78;;
16308;SDS011;8263;48.880;9.276;2023-05-31T03:04:47;122.32;;;114.13;;
16308;SDS011;8263;48.880;9.276;2023-05-31T03:07:13;121.93;;;113.65;;
16308;SDS011;8263;48.880;9.276;2023-05-31T03:09:41;123.80;;;115.47;;
16308;SDS011;8263;48.880;9.276;2023-05-31T03:12:08;123.70;;;115.32;;
16308;SDS011;8263;48.880;9.276;2023-05-31T03:14:35;125.03;;;116.57;;
16308;SDS011;8263;48.880;9.276;2023-05-31T03:17:02;123.30;;;114.97;;
16308;SDS011;8263;48.880;9.276;2023-05-31T03:19:29;124.53;;;116.00;;
16308;SDS011;8263;48.880;9.276;2023-05-31T03:21:56;124.55;;;115.93;;
16308;SDS011;8263;48.880;9.276;2023-05-31T03:24:22;123.97;;;115.60;;
16308;SDS011;8263;48.880;9.276;2023-05-31T03:26:51;123.85;;;115.47;;
16308;SDS011;8263;48.880;9.276;2023-05-31T03:29:17;123.05;;;114.70;;
16308;SDS011;8263;48.880;9.276;2023-05-31T03:31:44;123.82;;;115.43;;
16308;SDS011;8263;48.880;9.276;2023-05-31T03:34:10;123.78;;;115.38;;
16308;SDS011;8263;48.880;9.276;2023-05-31T03:36:37;124.80;;;116.00;;
16308;SDS011;8263;48.880;9.276;2023-05-31T03:39:03;124.93;;;116.15;;
16308;SDS011;8263;48.880;9.276;2023-05-31T03:41:31;125.20;;;116.63;;
16308;SDS011;8263;48.880;9.276;2023-05-31T03:43:59;124.57;;;116.15;;
16308;SDS011;8263;48.880;9.276;2023-05-31T03:46:27;125.03;;;116.55;;
16308;SDS011;8263;48.880;9.276;2023-05-31T03:48:55;123.57;;;115.25;;
16308;SDS011;8263;48.880;9.276;2023-05-31T03:51:21;124.93;;;116.50;;
16308;SDS011;8263;48.880;9.276;2023-05-31T03:53:48;123.53;;;115.18;;
16308;SDS011;8263;48.880;9.276;2023-05-31T03:56:14;125.78;;;117.25;;
16308;SDS011;8263;48.880;9.276;2023-05-31T03:58:41;126.55;;;117.95;;
16308;SDS011;8263;48.880;9.276;2023-05-31T04:01:09;126.05;;;117.43;;
16308;SDS011;8263;48.880;9.276;2023-05-31T04:03:36;126.50;;;117.80;;
16308;SDS011;8263;48.880;9.276;2023-05-31T04:06:03;126.25;;;117.68;;
16308;SDS011;8263;48.880;9.276;2023-05-31T04:08:29;124.85;;;116.35;;
16308;SDS011;8263;48.880;9.276;2023-05-31T04:10:56;124.30;;;115.90;;
16308;SDS011;8263;48.880;9.276;2023-05-31T04:13:23;124.45;;;116.00;;
16308;SDS011;8263;48.880;9.276;2023-05-31T04:15:49;124.55;;;116.10;;
16308;SDS011;8263;48.880;9.276;2023-05-31T04:18:18;128.52;;;119.15;;
16308;SDS011;8263;48.880;9.276;2023-05-31T04:20:44;126.03;;;117.43;;
16308;SDS011;8263;48.880;9.276;2023-05-31T04:23:11;124.20;;;115.75;;
16308;SDS011;8263;48.880;9.276;2023-05-31T04:25:37;125.72;;;117.18;;
16308;SDS011;8263;48.880;9.276;2023-05-31T04:28:04;125.45;;;116.95;;
16308;SDS011;8263;48.880;9.276;2023-05-31T04:30:31;126.57;;;117.97;;
16308;SDS011;8263;48.880;9.276;2023-05-31T04:32:58;127.07;;;118.38;;
16308;SDS011;8263;48.880;9.276;2023-05-31T04:35:26;128.25;;;119.45;;
16308;SDS011;8263;48.880;9.276;2023-05-31T04:37:54;126.70;;;118.07;;
16308;SDS011;8263;48.880;9.276;2023-05-31T04:40:24;125.90;;;117.30;;
16308;SDS011;8263;48.880;9.276;2023-05-31T04:42:50;126.15;;;117.55;;
16308;SDS011;8263;48.880;9.276;2023-05-31T04:45:17;124.63;;;116.10;;
16308;SDS011;8263;48.880;9.276;2023-05-31T04:47:43;126.50;;;117.80;;
16308;SDS011;8263;48.880;9.276;2023-05-31T04:50:10;124.80;;;116.22;;
16308;SDS011;8263;48.880;9.276;2023-05-31T04:52:39;127.80;;;119.10;;
16308;SDS011;8263;48.880;9.276;2023-05-31T04:55:06;127.15;;;118.45;;
16308;SDS011;8263;48.880;9.276;2023-05-31T04:57:34;127.35;;;118.47;;
16308;SDS011;8263;48.880;9.276;2023-05-31T05:00:00;127.55;;;118.85;;
16308;SDS011;8263;48.880;9.276;2023-05-31T05:02:29;126.97;;;118.32;;
16308;SDS011;8263;48.880;9.276;2023-05-31T05:04:55;126.70;;;118.10;;
16308;SDS011;8263;48.880;9.276;2023-05-31T05:07:22;125.25;;;116.75;;
16308;SDS011;8263;48.880;9.276;2023-05-31T05:09:50;127.03;;;118.32;;
16308;SDS011;8263;48.880;9.276;2023-05-31T05:12:17;128.68;;;119.78;;
16308;SDS011;8263;48.880;9.276;2023-05-31T05:14:43;126.72;;;118.05;;
16308;SDS011;8263;48.880;9.276;2023-05-31T05:17:10;127.60;;;118.65;;
16308;SDS011;8263;48.880;9.276;2023-05-31T05:19:36;127.57;;;118.78;;
16308;SDS011;8263;48.880;9.276;2023-05-31T05:22:03;127.53;;;118.82;;
16308;SDS011;8263;48.880;9.276;2023-05-31T05:24:30;126.80;;;118.10;;
16308;SDS011;8263;48.880;9.276;2023-05-31T05:26:58;128.27;;;119.47;;
16308;SDS011;8263;48.880;9.276;2023-05-31T05:29:25;127.63;;;118.82;;
16308;SDS011;8263;48.880;9.276;2023-05-31T05:31:52;127.65;;;118.90;;
16308;SDS011;8263;48.880;9.276;2023-05-31T05:34:18;128.13;;;119.35;;
16308;SDS011;8263;48.880;9.276;2023-05-31T05:36:45;126.32;;;117.72;;
16308;SDS011;8263;48.880;9.276;2023-05-31T05:39:12;127.95;;;119.00;;
16308;SDS011;8263;48.880;9.276;2023-05-31T05:41:38;126.78;;;118.15;;
16308;SDS011;8263;48.880;9.276;2023-05-31T05:44:07;127.35;;;118.55;;
16308;SDS011;8263;48.880;9.276;2023-05-31T05:46:33;127.30;;;118.60;;
16308;SDS011;8263;48.880;9.276;2023-05-31T05:49:00;128.15;;;119.35;;
16308;SDS011;8263;48.880;9.276;2023-05-31T05:51:27;124.95;;;116.25;;
16308;SDS011;8263;48.880;9.276;2023-05-31T05:53:54;126.03;;;117.45;;
16308;SDS011;8263;48.880;9.276;2023-05-31T05:56:20;126.28;;;117.47;;
16308;SDS011;8263;48.880;9.276;2023-05-31T05:58:47;126.68;;;117.97;;
16308;SDS011;8263;48.880;9.276;2023-05-31T06:01:15;125.45;;;116.95;;
16308;SDS011;8263;48.880;9.276;2023-05-31T06:03:45;125.78;;;117.18;;
16308;SDS011;8263;48.880;9.276;2023-05-31T06:06:12;126.47;;;117.70;;
16308;SDS011;8263;48.880;9.276;2023-05-31T06:08:38;124.72;;;116.22;;
16308;SDS011;8263;48.880;9.276;2023-05-31T06:11:05;125.65;;;117.07;;
16308;SDS011;8263;48.880;9.276;2023-05-31T06:13:32;122.40;;;114.07;;
16308;SDS011;8263;48.880;9.276;2023-05-31T06:15:58;124.82;;;116.32;;
16308;SDS011;8263;48.880;9.276;2023-05-31T06:18:28;125.72;;;117.22;;
16308;SDS011;8263;48.880;9.276;2023-05-31T06:20:55;126.22;;;117.50;;
16308;SDS011;8263;48.880;9.276;2023-05-31T06:23:22;125.70;;;117.10;;
16308;SDS011;8263;48.880;9.276;2023-05-31T06:25:48;125.10;;;116.60;;
16308;SDS011;8263;48.880;9.276;2023-05-31T06:28:16;125.20;;;116.70;;
16308;SDS011;8263;48.880;9.276;2023-05-31T06:30:42;124.35;;;115.88;;
16308;SDS011;8263;48.880;9.276;2023-05-31T06:33:09;124.68;;;116.18;;
16308;SDS011;8263;48.880;9.276;2023-05-31T06:35:37;125.32;;;116.82;;
16308;SDS011;8263;48.880;9.276;2023-05-31T06:38:04;123.07;;;114.57;;
16308;SDS011;8263;48.880;9.276;2023-05-31T06:40:31;124.50;;;116.05;;
16308;SDS011;8263;48.880;9.276;2023-05-31T06:42:58;122.63;;;114.22;;
16308;SDS011;8263;48.880;9.276;2023-05-31T06:45:24;124.50;;;116.10;;
16308;SDS011;8263;48.880;9.276;2023-05-31T06:47:51;122.95;;;114.57;;
16308;SDS011;8263;48.880;9.276;2023-05-31T06:50:18;122.55;;;114.25;;
16308;SDS011;8263;48.880;9.276;2023-05-31T06:52:46;121.25;;;113.05;;
16308;SDS011;8263;48.880;9.276;2023-05-31T06:55:12;123.85;;;115.45;;
16308;SDS011;8263;48.880;9.276;2023-05-31T06:57:39;122.88;;;114.55;;
16308;SDS011;8263;48.880;9.276;2023-05-31T07:00:06;121.50;;;113.30;;
16308;SDS011;8263;48.880;9.276;2023-05-31T07:02:33;121.88;;;113.68;;
16308;SDS011;8263;48.880;9.276;2023-05-31T07:05:00;121.57;;;113.35;;
16308;SDS011;8263;48.880;9.276;2023-05-31T07:07:27;122.22;;;113.95;;
16308;SDS011;8263;48.880;9.276;2023-05-31T07:09:55;120.90;;;112.70;;
16308;SDS011;8263;48.880;9.276;2023-05-31T07:12:21;121.25;;;113.10;;
16308;SDS011;8263;48.880;9.276;2023-05-31T07:14:48;122.70;;;114.50;;
16308;SDS011;8263;48.880;9.276;2023-05-31T07:17:15;119.80;;;111.70;;
16308;SDS011;8263;48.880;9.276;2023-05-31T07:19:44;120.03;;;111.93;;
16308;SDS011;8263;48.880;9.276;2023-05-31T07:22:11;118.97;;;111.03;;
16308;SDS011;8263;48.880;9.276;2023-05-31T07:24:38;121.05;;;112.90;;
16308;SDS011;8263;48.880;9.276;2023-05-31T07:27:07;117.50;;;109.50;;
16308;SDS011;8263;48.880;9.276;2023-05-31T07:29:33;119.68;;;111.57;;
16308;SDS011;8263;48.880;9.276;2023-05-31T07:32:00;119.85;;;111.75;;
16308;SDS011;8263;48.880;9.276;2023-05-31T07:34:27;118.72;;;110.82;;
16308;SDS011;8263;48.880;9.276;2023-05-31T07:36:53;119.88;;;111.88;;
16308;SDS011;8263;48.880;9.276;2023-05-31T07:39:20;119.05;;;111.15;;
16308;SDS011;8263;48.880;9.276;2023-05-31T07:41:47;118.15;;;110.25;;
16308;SDS011;8263;48.880;9.276;2023-05-31T07:44:15;118.45;;;110.50;;
16308;SDS011;8263;48.880;9.276;2023-05-31T07:46:43;117.43;;;109.35;;
16308;SDS011;8263;48.880;9.276;2023-05-31T07:49:10;117.78;;;109.88;;
16308;SDS011;8263;48.880;9.276;2023-05-31T07:51:37;116.18;;;108.40;;
16308;SDS011;8263;48.880;9.276;2023-05-31T07:54:04;115.93;;;108.30;;
16308;SDS011;8263;48.880;9.276;2023-05-31T07:56:31;117.22;;;109.43;;
16308;SDS011;8263;48.880;9.276;2023-05-31T07:58:57;114.85;;;107.25;;
16308;SDS011;8263;48.880;9.276;2023-05-31T08:01:26;113.25;;;105.75;;
16308;SDS011;8263;48.880;9.276;2023-05-31T08:03:53;116.97;;;109.18;;
16308;SDS011;8263;48.880;9.276;2023-05-31T08:06:20;117.03;;;109.22;;
16308;SDS011;8263;48.880;9.276;2023-05-31T08:08:47;114.55;;;107.00;;
16308;SDS011;8263;48.880;9.276;2023-05-31T08:11:13;116.32;;;108.60;;
16308;SDS011;8263;48.880;9.276;2023-05-31T08:13:40;115.43;;;107.80;;
16308;SDS011;8263;48.880;9.276;2023-05-31T08:16:07;113.30;;;105.80;;
16308;SDS011;8263;48.880;9.276;2023-05-31T08:18:34;114.50;;;106.90;;
16308;SDS011;8263;48.880;9.276;2023-05-31T08:21:01;113.32;;;105.88;;
16308;SDS011;8263;48.880;9.276;2023-05-31T08:23:27;112.40;;;105.00;;
16308;SDS011;8263;48.880;9.276;2023-05-31T08:25:55;113.63;;;106.18;;
16308;SDS011;8263;48.880;9.276;2023-05-31T08:28:22;113.68;;;106.10;;
16308;SDS011;8263;48.880;9.276;2023-05-31T08:30:48;112.35;;;104.97;;
16308;SDS011;8263;48.880;9.276;2023-05-31T08:33:15;111.15;;;103.65;;
16308;SDS011;8263;48.880;9.276;2023-05-31T08:35:43;110.15;;;102.95;;
16308;SDS011;8263;48.880;9.276;2023-05-31T08:38:09;111.03;;;103.72;;
16308;SDS011;8263;48.880;9.276;2023-05-31T08:40:36;108.50;;;101.40;;
16308;SDS011;8263;48.880;9.276;2023-05-31T08:43:05;109.47;;;102.35;;
16308;SDS011;8263;48.880;9.276;2023-05-31T08:45:33;111.05;;;103.82;;
16308;SDS011;8263;48.880;9.276;2023-05-31T08:48:02;110.65;;;103.18;;
16308;SDS011;8263;48.880;9.276;2023-05-31T08:50:32;110.38;;;103.18;;
16308;SDS011;8263;48.880;9.276;2023-05-31T08:53:00;108.65;;;101.55;;
16308;SDS011;8263;48.880;9.276;2023-05-31T08:55:27;107.50;;;100.45;;
16308;SDS011;8263;48.880;9.276;2023-05-31T08:57:54;109.88;;;102.60;;
16308;SDS011;8263;48.880;9.276;2023-05-31T09:00:22;108.70;;;101.57;;
16308;SDS011;8263;48.880;9.276;2023-05-31T09:02:49;105.95;;;99.05;;
16308;SDS011;8263;48.880;9.276;2023-05-31T09:05:17;104.65;;;97.85;;
16308;SDS011;8263;48.880;9.276;2023-05-31T09:07:45;106.18;;;99.28;;
16308;SDS011;8263;48.880;9.276;2023-05-31T09:10:14;108.03;;;101.03;;
16308;SDS011;8263;48.880;9.276;2023-05-31T09:12:42;106.10;;;99.20;;
16308;SDS011;8263;48.880;9.276;2023-05-31T09:15:08;106.25;;;99.38;;
16308;SDS011;8263;48.880;9.276;2023-05-31T09:17:41;106.68;;;99.78;;
16308;SDS011;8263;48.880;9.276;2023-05-31T09:20:08;106.63;;;99.72;;
16308;SDS011;8263;48.880;9.276;2023-05-31T09:22:35;103.55;;;96.85;;
16308;SDS011;8263;48.880;9.276;2023-05-31T09:25:02;104.30;;;97.50;;
16308;SDS011;8263;48.880;9.276;2023-05-31T09:27:36;102.60;;;95.93;;
16308;SDS011;8263;48.880;9.276;2023-05-31T09:30:06;100.70;;;94.20;;
16308;SDS011;8263;48.880;9.276;2023-05-31T09:32:33;102.47;;;95.82;;
16308;SDS011;8263;48.880;9.276;2023-05-31T09:35:10;101.75;;;95.05;;
16308;SDS011;8263;48.880;9.276;2023-05-31T09:37:41;103.10;;;96.40;;
16308;SDS011;8263;48.880;9.276;2023-05-31T09:40:08;102.68;;;96.07;;
16308;SDS011;8263;48.880;9.276;2023-05-31T09:42:37;99.68;;;93.20;;
16308;SDS011;8263;48.880;9.276;2023-05-31T09:45:04;102.25;;;95.65;;
16308;SDS011;8263;48.880;9.276;2023-05-31T09:47:30;100.85;;;94.35;;
16308;SDS011;8263;48.880;9.276;2023-05-31T09:49:57;101.28;;;94.78;;
16308;SDS011;8263;48.880;9.276;2023-05-31T09:52:27;98.60;;;92.25;;
16308;SDS011;8263;48.880;9.276;2023-05-31T09:54:55;100.35;;;93.93;;
16308;SDS011;8263;48.880;9.276;2023-05-31T09:57:29;99.45;;;92.88;;
16308;SDS011;8263;48.880;9.276;2023-05-31T09:59:57;96.85;;;90.60;;
16308;SDS011;8263;48.880;9.276;2023-05-31T10:02:25;87.90;;;82.20;;
16308;SDS011;8263;48.880;9.276;2023-05-31T10:04:52;94.03;;;87.93;;
16308;SDS011;8263;48.880;9.276;2023-05-31T10:07:20;95.70;;;89.60;;
16308;SDS011;8263;48.880;9.276;2023-05-31T10:09:47;95.05;;;88.95;;
16308;SDS011;8263;48.880;9.276;2023-05-31T10:12:14;98.00;;;91.40;;
16308;SDS011;8263;48.880;9.276;2023-05-31T10:14:44;95.75;;;89.55;;
16308;SDS011;8263;48.880;9.276;2023-05-31T10:17:16;94.28;;;88.28;;
16308;SDS011;8263;48.880;9.276;2023-05-31T10:19:48;99.03;;;92.20;;
16308;SDS011;8263;48.880;9.276;2023-05-31T10:22:16;96.25;;;90.15;;
16308;SDS011;8263;48.880;9.276;2023-05-31T10:24:44;94.88;;;88.88;;
16308;SDS011;8263;48.880;9.276;2023-05-31T10:27:17;94.93;;;88.82;;
16308;SDS011;8263;48.880;9.276;2023-05-31T10:29:48;93.50;;;87.57;;
16308;SDS011;8263;48.880;9.276;2023-05-31T10:32:18;92.70;;;86.68;;
16308;SDS011;8263;48.880;9.276;2023-05-31T10:34:45;86.57;;;80.97;;
16308;SDS011;8263;48.880;9.276;2023-05-31T10:37:12;91.32;;;85.53;;
16308;SDS011;8263;48.880;9.276;2023-05-31T10:39:41;92.20;;;86.30;;
16308;SDS011;8263;48.880;9.276;2023-05-31T10:42:12;91.28;;;85.32;;
16308;SDS011;8263;48.880;9.276;2023-05-31T10:44:42;91.55;;;85.60;;
16308;SDS011;8263;48.880;9.276;2023-05-31T10:47:11;94.00;;;87.90;;
16308;SDS011;8263;48.880;9.276;2023-05-31T10:49:42;92.28;;;86.40;;
16308;SDS011;8263;48.880;9.276;2023-05-31T10:52:09;92.50;;;86.50;;
16308;SDS011;8263;48.880;9.276;2023-05-31T10:54:39;91.60;;;85.80;;
16308;SDS011;8263;48.880;9.276;2023-05-31T10:57:06;92.38;;;86.38;;
16308;SDS011;8263;48.880;9.276;2023-05-31T10:59:41;93.32;;;87.32;;
16308;SDS011;8263;48.880;9.276;2023-05-31T11:02:08;91.68;;;85.78;;
16308;SDS011;8263;48.880;9.276;2023-05-31T11:04:35;92.07;;;86.13;;
16308;SDS011;8263;48.880;9.276;2023-05-31T11:07:24;89.80;;;84.05;;
16308;SDS011;8263;48.880;9.276;2023-05-31T11:09:54;92.78;;;86.78;;
16308;SDS011;8263;48.880;9.276;2023-05-31T11:12:34;91.85;;;85.85;;
16308;SDS011;8263;48.880;9.276;2023-05-31T11:15:01;88.38;;;82.22;;
16308;SDS011;8263;48.880;9.276;2023-05-31T11:17:38;88.90;;;83.20;;
16308;SDS011;8263;48.880;9.276;2023-05-31T11:20:05;90.40;;;84.60;;
16308;SDS011;8263;48.880;9.276;2023-05-31T11:25:19;88.53;;;82.72;;
16308;SDS011;8263;48.880;9.276;2023-05-31T11:27:46;87.88;;;82.30;;
16308;SDS011;8263;48.880;9.276;2023-05-31T11:30:14;88.85;;;83.07;;
16308;SDS011;8263;48.880;9.276;2023-05-31T11:35:32;88.03;;;82.43;;
16308;SDS011;8263;48.880;9.276;2023-05-31T11:37:59;85.72;;;80.22;;
16308;SDS011;8263;48.880;9.276;2023-05-31T11:40:30;88.70;;;83.07;;
16308;SDS011;8263;48.880;9.276;2023-05-31T11:43:08;87.22;;;81.72;;
16308;SDS011;8263;48.880;9.276;2023-05-31T11:45:40;89.28;;;83.60;;
16308;SDS011;8263;48.880;9.276;2023-05-31T11:48:24;87.22;;;81.63;;
16308;SDS011;8263;48.880;9.276;2023-05-31T11:50:56;86.22;;;80.72;;
16308;SDS011;8263;48.880;9.276;2023-05-31T11:53:22;86.18;;;80.68;;
16308;SDS011;8263;48.880;9.276;2023-05-31T11:55:52;83.63;;;78.28;;
16308;SDS011;8263;48.880;9.276;2023-05-31T11:58:19;85.75;;;79.97;;
16308;SDS011;8263;48.880;9.276;2023-05-31T12:00:46;85.10;;;79.70;;
16308;SDS011;8263;48.880;9.276;2023-05-31T12:03:16;85.43;;;80.03;;
16308;SDS011;8263;48.880;9.276;2023-05-31T12:05:48;84.18;;;78.78;;
16308;SDS011;8263;48.880;9.276;2023-05-31T12:08:16;84.82;;;79.38;;
16308;SDS011;8263;48.880;9.276;2023-05-31T12:10:42;84.03;;;78.72;;
16308;SDS011;8263;48.880;9.276;2023-05-31T12:13:13;80.35;;;75.25;;
16308;SDS011;8263;48.880;9.276;2023-05-31T12:15:41;82.57;;;77.25;;
16308;SDS011;8263;48.880;9.276;2023-05-31T12:18:08;82.90;;;77.60;;
16308;SDS011;8263;48.880;9.276;2023-05-31T12:20:35;80.80;;;75.60;;
16308;SDS011;8263;48.880;9.276;2023-05-31T12:23:09;82.80;;;77.60;;
16308;SDS011;8263;48.880;9.276;2023-05-31T12:25:37;83.80;;;78.40;;
16308;SDS011;8263;48.880;9.276;2023-05-31T12:28:09;79.82;;;74.78;;
16308;SDS011;8263;48.880;9.276;2023-05-31T12:30:42;80.30;;;75.20;;
16308;SDS011;8263;48.880;9.276;2023-05-31T12:33:09;81.28;;;75.82;;
16308;SDS011;8263;48.880;9.276;2023-05-31T12:35:39;81.47;;;76.28;;
16308;SDS011;8263;48.880;9.276;2023-05-31T12:38:07;80.95;;;75.63;;
16308;SDS011;8263;48.880;9.276;2023-05-31T12:40:36;81.70;;;76.55;;
16308;SDS011;8263;48.880;9.276;2023-05-31T12:43:03;80.80;;;75.63;;
16308;SDS011;8263;48.880;9.276;2023-05-31T12:45:30;79.90;;;74.80;;
16308;SDS011;8263;48.880;9.276;2023-05-31T12:47:58;80.82;;;75.72;;
16308;SDS011;8263;48.880;9.276;2023-05-31T12:50:27;79.57;;;74.55;;
16308;SDS011;8263;48.880;9.276;2023-05-31T12:52:55;77.97;;;73.03;;
16308;SDS011;8263;48.880;9.276;2023-05-31T12:55:21;79.57;;;74.57;;
16308;SDS011;8263;48.880;9.276;2023-05-31T12:57:48;79.75;;;74.65;;
16308;SDS011;8263;48.880;9.276;2023-05-31T13:00:15;78.65;;;73.65;;
16308;SDS011;8263;48.880;9.276;2023-05-31T13:02:42;81.47;;;76.32;;
16308;SDS011;8263;48.880;9.276;2023-05-31T13:05:10;79.03;;;74.03;;
16308;SDS011;8263;48.880;9.276;2023-05-31T13:07:37;79.38;;;74.38;;
16308;SDS011;8263;48.880;9.276;2023-05-31T13:10:04;78.32;;;73.40;;
16308;SDS011;8263;48.880;9.276;2023-05-31T13:12:32;78.32;;;73.28;;
16308;SDS011;8263;48.880;9.276;2023-05-31T13:14:59;78.25;;;73.15;;
16308;SDS011;8263;48.880;9.276;2023-05-31T13:17:25;77.55;;;72.65;;
16308;SDS011;8263;48.880;9.276;2023-05-31T13:19:52;77.53;;;72.63;;
16308;SDS011;8263;48.880;9.276;2023-05-31T13:22:20;77.70;;;72.80;;
16308;SDS011;8263;48.880;9.276;2023-05-31T13:24:46;76.20;;;71.32;;
16308;SDS011;8263;48.880;9.276;2023-05-31T13:27:13;78.43;;;73.43;;
16308;SDS011;8263;48.880;9.276;2023-05-31T13:29:39;78.10;;;73.20;;
16308;SDS011;8263;48.880;9.276;2023-05-31T13:32:07;77.60;;;72.70;;
16308;SDS011;8263;48.880;9.276;2023-05-31T13:34:33;77.18;;;72.28;;
16308;SDS011;8263;48.880;9.276;2023-05-31T13:37:00;76.50;;;71.70;;
16308;SDS011;8263;48.880;9.276;2023-05-31T13:39:29;77.50;;;72.50;;
16308;SDS011;8263;48.880;9.276;2023-05-31T13:41:55;77.15;;;72.28;;
16308;SDS011;8263;48.880;9.276;2023-05-31T13:44:22;76.53;;;71.65;;
16308;SDS011;8263;48.880;9.276;2023-05-31T13:46:49;75.50;;;70.70;;
16308;SDS011;8263;48.880;9.276;2023-05-31T13:49:15;75.68;;;70.88;;
16308;SDS011;8263;48.880;9.276;2023-05-31T13:51:45;76.57;;;71.68;;
16308;SDS011;8263;48.880;9.276;2023-05-31T13:54:12;74.20;;;69.40;;
16308;SDS011;8263;48.880;9.276;2023-05-31T13:56:41;75.30;;;70.50;;
16308;SDS011;8263;48.880;9.276;2023-05-31T13:59:07;78.20;;;73.25;;
16308;SDS011;8263;48.880;9.276;2023-05-31T14:01:35;76.18;;;71.38;;
16308;SDS011;8263;48.880;9.276;2023-05-31T14:04:02;76.40;;;71.60;;
16308;SDS011;8263;48.880;9.276;2023-05-31T14:06:28;75.75;;;70.95;;
16308;SDS011;8263;48.880;9.276;2023-05-31T14:08:55;73.40;;;68.70;;
16308;SDS011;8263;48.880;9.276;2023-05-31T14:11:22;76.45;;;71.55;;
16308;SDS011;8263;48.880;9.276;2023-05-31T14:13:50;74.97;;;70.18;;
16308;SDS011;8263;48.880;9.276;2023-05-31T14:16:16;72.88;;;68.28;;
16308;SDS011;8263;48.880;9.276;2023-05-31T14:18:43;72.68;;;68.03;;
16308;SDS011;8263;48.880;9.276;2023-05-31T14:21:10;74.70;;;69.90;;
16308;SDS011;8263;48.880;9.276;2023-05-31T14:23:37;74.40;;;69.63;;
16308;SDS011;8263;48.880;9.276;2023-05-31T14:26:03;74.93;;;70.07;;
16308;SDS011;8263;48.880;9.276;2023-05-31T14:28:30;74.65;;;69.95;;